createdAt,value
2018-07-07T00:00:27.322Z,45.70
2018-07-07T00:01:27.310Z,47.22
2018-07-07T00:02:27.278Z,45.61
2018-07-07T00:03:27.241Z,47.42
2018-07-07T00:04:27.276Z,46.41
2018-07-07T00:05:27.140Z,45.70
2018-07-07T00:06:27.446Z,46.21
2018-07-07T00:07:27.237Z,45.70
2018-07-07T00:08:27.189Z,46.61
2018-07-07T00:09:27.096Z,49.24
2018-07-07T00:10:27.111Z,48.73
2018-07-07T00:11:27.091Z,45.98
2018-07-07T00:12:27.061Z,46.71
2018-07-07T00:13:27.045Z,45.28
2018-07-07T00:14:27.044Z,45.61
2018-07-07T00:15:27.029Z,46.21
2018-07-07T00:16:27.200Z,46.92
2018-07-07T00:17:27.061Z,46.19
2018-07-07T00:18:26.987Z,46.31
2018-07-07T00:19:27.271Z,45.20
2018-07-07T00:20:27.691Z,46.41
2018-07-07T00:21:27.094Z,46.19
2018-07-07T00:22:27.262Z,45.58
2018-07-07T00:23:26.959Z,47.19
2018-07-07T00:24:26.988Z,46.51
2018-07-07T00:25:26.915Z,45.61
2018-07-07T00:26:26.906Z,46.09
2018-07-07T00:27:27.111Z,46.21
2018-07-07T00:28:27.004Z,45.30
2018-07-07T00:29:27.037Z,44.87
2018-07-07T00:30:26.938Z,45.00
2018-07-07T00:31:26.950Z,46.01
2018-07-07T00:32:27.044Z,45.30
2018-07-07T00:33:26.887Z,45.20
2018-07-07T00:34:26.800Z,46.21
2018-07-07T00:35:26.792Z,46.31
2018-07-07T00:36:26.862Z,45.00
2018-07-07T00:37:26.868Z,45.40
2018-07-07T00:38:26.776Z,44.79
2018-07-07T00:39:26.798Z,46.01
2018-07-07T00:40:26.735Z,45.61
2018-07-07T00:41:26.720Z,46.33
2018-07-07T00:42:26.711Z,45.50
2018-07-07T00:43:26.728Z,45.62
2018-07-07T00:44:26.779Z,45.93
2018-07-07T00:45:26.773Z,45.42
2018-07-07T00:46:26.795Z,45.93
2018-07-07T00:47:26.734Z,46.64
2018-07-07T00:48:26.757Z,46.23
2018-07-07T00:49:26.777Z,47.24
2018-07-07T00:50:26.637Z,46.03
2018-07-07T00:51:26.645Z,47.87
2018-07-07T00:52:26.587Z,46.15
2018-07-07T00:53:26.640Z,46.25
2018-07-07T00:54:26.740Z,46.96
2018-07-07T00:55:26.553Z,46.86
2018-07-07T00:56:26.549Z,46.76
2018-07-07T00:57:26.646Z,46.76
2018-07-07T00:58:26.635Z,47.26
2018-07-07T00:59:26.516Z,47.26
2018-07-07T01:00:26.643Z,48.10
2018-07-07T01:01:26.486Z,48.19
2018-07-07T01:02:26.580Z,48.17
2018-07-07T01:03:26.585Z,49.21
2018-07-07T01:04:26.511Z,48.10
2018-07-07T01:05:26.567Z,48.50
2018-07-07T01:06:26.644Z,48.10
2018-07-07T01:07:26.516Z,47.99
2018-07-07T01:08:26.495Z,48.19
2018-07-07T01:09:26.501Z,48.30
2018-07-07T01:10:26.483Z,47.99
2018-07-07T01:11:26.568Z,46.98
2018-07-07T01:12:26.452Z,47.59
2018-07-07T01:13:26.353Z,46.98
2018-07-07T01:14:26.357Z,47.08
2018-07-07T01:15:26.326Z,46.88
2018-07-07T01:16:26.437Z,46.68
2018-07-07T01:17:26.395Z,47.79
2018-07-07T01:18:26.301Z,46.98
2018-07-07T01:19:26.284Z,47.99
2018-07-07T01:20:26.348Z,48.10
2018-07-07T01:21:26.372Z,48.90
2018-07-07T01:22:26.620Z,46.98
2018-07-07T01:23:26.233Z,46.98
2018-07-07T01:24:26.232Z,48.10
2018-07-07T01:25:26.211Z,47.28
2018-07-07T01:26:26.210Z,47.08
2018-07-07T01:27:26.191Z,49.01
2018-07-07T01:28:26.198Z,48.60
2018-07-07T01:29:26.174Z,48.22
2018-07-07T01:30:26.160Z,48.19
2018-07-07T01:31:26.153Z,48.11
2018-07-07T01:32:26.170Z,48.11
2018-07-07T01:33:26.120Z,47.91
2018-07-07T01:34:26.118Z,49.13
2018-07-07T01:35:26.105Z,48.82
2018-07-07T01:36:26.087Z,48.32
2018-07-07T01:37:26.077Z,49.02
2018-07-07T01:38:26.097Z,48.82
2018-07-07T01:39:26.056Z,49.33
2018-07-07T01:40:26.047Z,49.66
2018-07-07T01:41:26.038Z,49.15
2018-07-07T01:42:26.023Z,48.95
2018-07-07T01:43:26.007Z,48.97
2018-07-07T01:44:26.021Z,48.85
2018-07-07T01:45:25.988Z,49.25
2018-07-07T01:46:25.976Z,48.95
2018-07-07T01:47:25.975Z,49.48
2018-07-07T01:48:25.948Z,49.48
2018-07-07T01:49:25.979Z,50.18
2018-07-07T01:50:25.926Z,49.88
2018-07-07T01:51:25.921Z,49.58
2018-07-07T01:52:25.906Z,49.88
2018-07-07T01:53:25.898Z,50.31
2018-07-07T01:54:25.884Z,50.01
2018-07-07T01:55:25.905Z,50.21
2018-07-07T01:56:25.860Z,50.71
2018-07-07T01:57:25.851Z,51.62
2018-07-07T01:58:25.842Z,51.53
2018-07-07T01:59:25.830Z,51.75
2018-07-07T02:00:25.836Z,52.06
2018-07-07T02:01:25.829Z,52.46
2018-07-07T02:02:25.789Z,54.69
2018-07-07T02:03:25.781Z,53.47
2018-07-07T02:04:25.766Z,52.97
2018-07-07T02:05:25.757Z,53.07
2018-07-07T02:06:25.776Z,52.97
2018-07-07T02:07:25.733Z,53.67
2018-07-07T02:08:25.723Z,53.37
2018-07-07T02:09:25.716Z,53.58
2018-07-07T02:10:25.727Z,53.47
2018-07-07T02:11:25.687Z,53.58
2018-07-07T02:12:25.693Z,53.98
2018-07-07T02:13:25.661Z,54.08
2018-07-07T02:14:25.657Z,54.11
2018-07-07T02:15:25.641Z,54.31
2018-07-07T02:16:25.629Z,54.11
2018-07-07T02:17:25.639Z,53.67
2018-07-07T02:18:25.610Z,54.41
2018-07-07T02:19:25.597Z,54.21
2018-07-07T02:20:25.577Z,54.11
2018-07-07T02:21:25.568Z,54.00
2018-07-07T02:22:25.589Z,54.00
2018-07-07T02:23:25.548Z,54.33
2018-07-07T02:24:25.533Z,54.64
2018-07-07T02:25:25.523Z,55.43
2018-07-07T02:26:25.515Z,54.61
2018-07-07T02:27:25.506Z,55.43
2018-07-07T02:28:25.518Z,55.45
2018-07-07T02:29:25.478Z,55.25
2018-07-07T02:30:25.465Z,55.55
2018-07-07T02:31:25.455Z,54.84
2018-07-07T02:32:25.445Z,55.65
2018-07-07T02:33:25.452Z,55.25
2018-07-07T02:34:25.415Z,55.27
2018-07-07T02:35:25.407Z,55.58
2018-07-07T02:36:25.398Z,56.09
2018-07-07T02:37:25.382Z,55.88
2018-07-07T02:38:25.397Z,56.11
2018-07-07T02:39:25.376Z,55.78
2018-07-07T02:40:25.353Z,55.78
2018-07-07T02:41:25.334Z,55.91
2018-07-07T02:42:25.332Z,56.31
2018-07-07T02:43:25.340Z,55.91
2018-07-07T02:44:25.308Z,55.50
2018-07-07T02:45:25.288Z,54.90
2018-07-07T02:46:25.298Z,55.30
2018-07-07T02:47:25.277Z,55.71
2018-07-07T02:48:25.261Z,55.40
2018-07-07T02:49:25.268Z,55.10
2018-07-07T02:50:25.235Z,55.60
2018-07-07T02:51:25.226Z,54.08
2018-07-07T02:52:25.210Z,55.10
2018-07-07T02:53:25.196Z,54.69
2018-07-07T02:54:25.224Z,53.88
2018-07-07T02:55:25.181Z,54.79
2018-07-07T02:56:25.162Z,55.30
2018-07-07T02:57:25.153Z,55.30
2018-07-07T02:58:25.144Z,55.30
2018-07-07T02:59:25.152Z,54.69
2018-07-07T03:00:25.142Z,53.98
2018-07-07T03:01:25.112Z,56.11
2018-07-07T03:02:25.137Z,55.60
2018-07-07T03:03:25.122Z,56.21
2018-07-07T03:04:25.088Z,56.11
2018-07-07T03:05:25.131Z,55.91
2018-07-07T03:06:25.096Z,55.30
2018-07-07T03:07:25.043Z,55.60
2018-07-07T03:08:25.027Z,56.29
2018-07-07T03:09:25.020Z,55.37
2018-07-07T03:10:25.032Z,55.58
2018-07-07T03:11:24.987Z,55.37
2018-07-07T03:12:24.983Z,55.27
2018-07-07T03:13:24.969Z,55.58
2018-07-07T03:14:24.954Z,55.37
2018-07-07T03:15:24.940Z,54.66
2018-07-07T03:16:24.987Z,55.58
2018-07-07T03:17:24.916Z,55.47
2018-07-07T03:18:24.917Z,55.37
2018-07-07T03:19:24.895Z,54.66
2018-07-07T03:20:24.886Z,54.57
2018-07-07T03:21:24.873Z,53.85
2018-07-07T03:22:24.886Z,54.79
2018-07-07T03:23:24.855Z,54.86
2018-07-07T03:24:24.845Z,54.26
2018-07-07T03:25:24.823Z,55.60
2018-07-07T03:26:24.820Z,54.79
2018-07-07T03:27:24.834Z,54.69
2018-07-07T03:28:24.795Z,55.30
2018-07-07T03:29:24.780Z,56.52
2018-07-07T03:30:24.770Z,55.50
2018-07-07T03:31:24.761Z,55.50
2018-07-07T03:32:24.747Z,55.91
2018-07-07T03:33:24.758Z,55.71
2018-07-07T03:34:24.726Z,56.21
2018-07-07T03:35:24.711Z,55.40
2018-07-07T03:36:24.698Z,55.63
2018-07-07T03:37:24.719Z,56.34
2018-07-07T03:38:24.676Z,56.95
2018-07-07T03:39:24.668Z,56.72
2018-07-07T03:40:24.661Z,56.95
2018-07-07T03:41:24.639Z,56.95
2018-07-07T03:42:24.631Z,57.15
2018-07-07T03:43:24.637Z,57.05
2018-07-07T03:44:24.611Z,56.95
2018-07-07T03:45:24.591Z,56.95
2018-07-07T03:46:24.586Z,57.05
2018-07-07T03:47:24.566Z,56.95
2018-07-07T03:48:24.586Z,56.92
2018-07-07T03:49:24.603Z,56.74
2018-07-07T03:50:24.540Z,56.85
2018-07-07T03:51:24.529Z,56.52
2018-07-07T03:52:24.514Z,56.92
2018-07-07T03:53:24.520Z,56.65
2018-07-07T03:54:24.494Z,56.85
2018-07-07T03:55:24.473Z,57.23
2018-07-07T03:56:24.471Z,56.62
2018-07-07T03:57:24.456Z,57.05
2018-07-07T03:58:24.465Z,57.46
2018-07-07T03:59:24.430Z,57.35
2018-07-07T04:00:24.422Z,57.25
2018-07-07T04:01:24.414Z,57.46
2018-07-07T04:02:24.392Z,56.85
2018-07-07T04:03:24.408Z,57.15
2018-07-07T04:04:24.375Z,57.15
2018-07-07T04:05:24.366Z,56.72
2018-07-07T04:06:24.346Z,57.05
2018-07-07T04:07:24.335Z,56.85
2018-07-07T04:08:24.366Z,56.95
2018-07-07T04:09:24.316Z,57.56
2018-07-07T04:10:24.300Z,57.46
2018-07-07T04:11:24.296Z,57.93
2018-07-07T04:12:24.283Z,57.03
2018-07-07T04:13:24.270Z,57.43
2018-07-07T04:14:24.282Z,57.73
2018-07-07T04:15:24.240Z,57.33
2018-07-07T04:16:24.243Z,57.43
2018-07-07T04:17:24.218Z,57.53
2018-07-07T04:18:24.214Z,57.53
2018-07-07T04:19:24.217Z,56.92
2018-07-07T04:20:24.191Z,56.92
2018-07-07T04:21:24.170Z,56.92
2018-07-07T04:22:24.168Z,57.23
2018-07-07T04:23:24.151Z,57.33
2018-07-07T04:24:24.172Z,57.03
2018-07-07T04:25:24.127Z,57.23
2018-07-07T04:26:24.121Z,57.20
2018-07-07T04:27:24.101Z,56.90
2018-07-07T04:28:24.091Z,57.12
2018-07-07T04:29:24.082Z,56.79
2018-07-07T04:30:24.092Z,57.40
2018-07-07T04:31:24.062Z,57.40
2018-07-07T04:32:24.042Z,57.40
2018-07-07T04:33:24.046Z,57.20
2018-07-07T04:34:24.019Z,56.92
2018-07-07T04:35:24.048Z,57.71
2018-07-07T04:36:23.997Z,56.90
2018-07-07T04:37:23.993Z,56.92
2018-07-07T04:38:23.973Z,56.79
2018-07-07T04:39:23.968Z,56.59
2018-07-07T04:40:23.953Z,56.99
2018-07-07T04:41:23.971Z,56.99
2018-07-07T04:42:23.934Z,56.59
2018-07-07T04:43:23.917Z,56.99
2018-07-07T04:44:23.908Z,56.70
2018-07-07T04:45:23.900Z,56.90
2018-07-07T04:46:23.908Z,56.39
2018-07-07T04:47:23.874Z,56.29
2018-07-07T04:48:23.860Z,56.90
2018-07-07T04:49:23.852Z,56.99
2018-07-07T04:50:23.837Z,56.49
2018-07-07T04:51:23.850Z,57.10
2018-07-07T04:52:23.817Z,56.49
2018-07-07T04:53:23.808Z,56.39
2018-07-07T04:54:23.790Z,56.59
2018-07-07T04:55:23.784Z,56.90
2018-07-07T04:56:23.786Z,56.39
2018-07-07T04:57:23.761Z,55.91
2018-07-07T04:58:23.741Z,55.27
2018-07-07T04:59:23.734Z,56.90
2018-07-07T05:00:23.726Z,55.58
2018-07-07T05:01:23.734Z,55.47
2018-07-07T05:02:23.696Z,56.90
2018-07-07T05:03:23.686Z,55.17
2018-07-07T05:04:23.687Z,55.78
2018-07-07T05:05:23.664Z,56.90
2018-07-07T05:06:23.671Z,55.27
2018-07-07T05:07:23.647Z,55.96
2018-07-07T05:08:23.626Z,55.15
2018-07-07T05:09:23.619Z,55.07
2018-07-07T05:10:23.612Z,55.27
2018-07-07T05:11:23.619Z,55.35
2018-07-07T05:12:23.589Z,55.68
2018-07-07T05:13:23.570Z,55.55
2018-07-07T05:14:23.567Z,55.37
2018-07-07T05:15:23.562Z,55.98
2018-07-07T05:16:23.565Z,55.65
2018-07-07T05:17:23.531Z,55.88
2018-07-07T05:18:23.519Z,55.37
2018-07-07T05:19:23.507Z,55.07
2018-07-07T05:20:23.496Z,54.77
2018-07-07T05:21:23.483Z,56.39
2018-07-07T05:22:23.500Z,55.27
2018-07-07T05:23:23.461Z,55.78
2018-07-07T05:24:23.446Z,55.85
2018-07-07T05:25:23.443Z,54.33
2018-07-07T05:26:23.429Z,54.64
2018-07-07T05:27:23.439Z,54.74
2018-07-07T05:28:23.397Z,54.57
2018-07-07T05:29:23.390Z,54.03
2018-07-07T05:30:23.382Z,54.64
2018-07-07T05:31:23.374Z,54.24
2018-07-07T05:32:23.384Z,54.53
2018-07-07T05:33:23.340Z,54.74
2018-07-07T05:34:23.339Z,54.44
2018-07-07T05:35:23.322Z,54.64
2018-07-07T05:36:23.313Z,55.22
2018-07-07T05:37:23.327Z,54.94
2018-07-07T05:38:23.289Z,54.51
2018-07-07T05:39:23.281Z,54.71
2018-07-07T05:40:23.260Z,53.80
2018-07-07T05:41:23.260Z,54.71
2018-07-07T05:42:23.258Z,54.51
2018-07-07T05:43:23.232Z,54.11
2018-07-07T05:44:23.218Z,55.15
2018-07-07T05:45:23.211Z,55.83
2018-07-07T05:46:23.200Z,55.45
2018-07-07T05:47:23.206Z,54.41
2018-07-07T05:48:23.169Z,54.21
2018-07-07T05:49:23.158Z,54.71
2018-07-07T05:50:23.146Z,55.43
2018-07-07T05:51:23.141Z,54.31
2018-07-07T05:52:23.148Z,54.61
2018-07-07T05:53:23.111Z,54.61
2018-07-07T05:54:23.113Z,54.59
2018-07-07T05:55:23.099Z,53.98
2018-07-07T05:56:23.080Z,53.58
2018-07-07T05:57:23.105Z,54.49
2018-07-07T05:58:23.059Z,54.18
2018-07-07T05:59:23.053Z,53.88
2018-07-07T06:00:23.033Z,54.59
2018-07-07T06:01:23.029Z,53.75
2018-07-07T06:02:23.013Z,54.05
2018-07-07T06:03:23.020Z,54.46
2018-07-07T06:04:22.993Z,54.36
2018-07-07T06:05:22.983Z,54.66
2018-07-07T06:06:22.973Z,54.53
2018-07-07T06:07:22.961Z,54.33
2018-07-07T06:08:22.963Z,54.33
2018-07-07T06:09:22.939Z,53.93
2018-07-07T06:10:22.921Z,53.93
2018-07-07T06:11:22.915Z,54.23
2018-07-07T06:12:22.898Z,54.51
2018-07-07T06:13:22.907Z,54.61
2018-07-07T06:14:22.932Z,53.90
2018-07-07T06:15:22.868Z,54.21
2018-07-07T06:16:22.855Z,54.18
2018-07-07T06:17:22.839Z,54.49
2018-07-07T06:18:22.906Z,53.67
2018-07-07T06:19:22.816Z,54.56
2018-07-07T06:20:22.805Z,54.25
2018-07-07T06:21:22.795Z,53.22
2018-07-07T06:22:22.785Z,52.31
2018-07-07T06:23:22.795Z,51.58
2018-07-07T06:24:22.760Z,51.76
2018-07-07T06:25:22.752Z,51.05
2018-07-07T06:26:22.797Z,51.25
2018-07-07T06:27:22.729Z,50.52
2018-07-07T06:28:22.714Z,50.82
2018-07-07T06:29:22.722Z,50.40
2018-07-07T06:30:22.697Z,50.30
2018-07-07T06:31:22.685Z,49.97
2018-07-07T06:32:22.663Z,49.16
2018-07-07T06:33:22.656Z,48.44
2018-07-07T06:34:22.675Z,47.94
2018-07-07T06:35:22.631Z,48.03
2018-07-07T06:36:22.622Z,47.91
2018-07-07T06:37:22.659Z,47.81
2018-07-07T06:38:22.602Z,47.19
2018-07-07T06:39:22.594Z,46.08
2018-07-07T06:40:22.600Z,46.36
2018-07-07T06:41:22.566Z,47.36
2018-07-07T06:42:22.551Z,45.33
2018-07-07T06:43:22.549Z,45.83
2018-07-07T06:44:22.551Z,44.83
2018-07-07T06:45:22.528Z,44.12
2018-07-07T06:46:22.512Z,43.30
2018-07-07T06:47:22.501Z,45.41
2018-07-07T06:48:22.487Z,44.08
2018-07-07T06:49:22.509Z,44.36
2018-07-07T06:50:22.462Z,44.67
2018-07-07T06:51:22.455Z,44.36
2018-07-07T06:52:22.440Z,44.06
2018-07-07T06:53:22.430Z,41.63
2018-07-07T06:54:22.422Z,41.33
2018-07-07T06:55:22.427Z,42.02
2018-07-07T06:56:22.395Z,43.12
2018-07-07T06:57:22.382Z,42.69
2018-07-07T06:58:22.373Z,43.08
2018-07-07T06:59:22.380Z,41.77
2018-07-07T07:00:22.351Z,38.57
2018-07-07T07:01:22.336Z,38.35
2018-07-07T07:02:22.326Z,38.45
2018-07-07T07:03:22.357Z,38.53
2018-07-07T07:04:22.335Z,38.33
2018-07-07T07:05:22.286Z,38.43
2018-07-07T07:06:22.330Z,38.43
2018-07-07T07:07:22.268Z,38.33
2018-07-07T07:08:22.253Z,38.11
2018-07-07T07:09:22.248Z,37.31
2018-07-07T07:10:22.260Z,36.49
2018-07-07T07:11:22.226Z,38.48
2018-07-07T07:12:22.209Z,37.58
2018-07-07T07:13:22.203Z,38.28
2018-07-07T07:14:22.190Z,36.26
2018-07-07T07:15:22.182Z,38.38
2018-07-07T07:16:22.190Z,36.06
2018-07-07T07:17:22.160Z,36.36
2018-07-07T07:18:22.146Z,36.64
2018-07-07T07:19:22.139Z,36.15
2018-07-07T07:20:22.119Z,36.02
2018-07-07T07:21:22.139Z,35.03
2018-07-07T07:22:22.098Z,35.81
2018-07-07T07:23:22.090Z,34.31
2018-07-07T07:24:22.082Z,34.00
2018-07-07T07:25:22.063Z,36.29
2018-07-07T07:26:22.199Z,36.49
2018-07-07T07:27:22.043Z,33.20
2018-07-07T07:28:22.035Z,32.59
2018-07-07T07:29:22.022Z,34.28
2018-07-07T07:30:22.015Z,35.58
2018-07-07T07:31:21.999Z,33.18
2018-07-07T07:32:22.014Z,33.08
2018-07-07T07:33:21.977Z,31.57
2018-07-07T07:34:21.992Z,33.07
2018-07-07T07:35:21.951Z,31.66
2018-07-07T07:36:21.953Z,32.54
2018-07-07T07:37:21.952Z,32.84
2018-07-07T07:38:21.927Z,33.32
2018-07-07T07:39:21.909Z,33.52
2018-07-07T07:40:21.904Z,33.02
2018-07-07T07:41:21.899Z,32.90
2018-07-07T07:42:21.896Z,32.31
2018-07-07T07:43:21.873Z,34.30
2018-07-07T07:44:21.863Z,33.11
2018-07-07T07:45:21.850Z,31.61
2018-07-07T07:46:21.834Z,31.50
2018-07-07T07:47:21.852Z,31.98
2018-07-07T07:48:21.817Z,30.79
2018-07-07T07:49:21.804Z,33.45
2018-07-07T07:50:21.788Z,31.07
2018-07-07T07:51:21.778Z,30.77
2018-07-07T07:52:21.770Z,29.38
2018-07-07T07:53:21.786Z,29.48
2018-07-07T07:54:21.744Z,28.49
2018-07-07T07:55:21.739Z,29.37
2018-07-07T07:56:21.729Z,30.26
2018-07-07T07:57:21.711Z,32.05
2018-07-07T07:58:21.723Z,31.95
2018-07-07T07:59:21.692Z,32.82
2018-07-07T08:00:21.684Z,31.62
2018-07-07T08:01:21.677Z,31.23
2018-07-07T08:02:21.659Z,31.42
2018-07-07T08:03:21.671Z,30.02
2018-07-07T08:04:21.641Z,29.23
2018-07-07T08:05:21.626Z,31.01
2018-07-07T08:06:21.618Z,31.39
2018-07-07T08:07:21.603Z,29.71
2018-07-07T08:08:21.621Z,27.92
2018-07-07T08:09:21.582Z,30.10
2018-07-07T08:10:21.578Z,33.17
2018-07-07T08:11:21.572Z,30.90
2018-07-07T08:12:21.559Z,29.20
2018-07-07T08:13:21.574Z,30.58
2018-07-07T08:14:21.535Z,32.46
2018-07-07T08:15:21.525Z,30.77
2018-07-07T08:16:21.518Z,29.28
2018-07-07T08:17:21.497Z,30.18
2018-07-07T08:18:21.495Z,30.65
2018-07-07T08:19:21.503Z,30.24
2018-07-07T08:20:21.469Z,28.76
2018-07-07T08:21:21.469Z,27.26
2018-07-07T08:22:21.448Z,29.44
2018-07-07T08:23:21.443Z,28.75
2018-07-07T08:24:21.476Z,28.93
2018-07-07T08:25:21.451Z,29.21
2018-07-07T08:26:21.409Z,27.52
2018-07-07T08:27:21.394Z,28.02
2018-07-07T08:28:21.437Z,27.52
2018-07-07T08:29:21.375Z,28.02
2018-07-07T08:30:21.394Z,27.70
2018-07-07T08:31:21.353Z,25.44
2018-07-07T08:32:21.351Z,27.79
2018-07-07T08:33:21.335Z,25.34
2018-07-07T08:34:21.358Z,26.32
2018-07-07T08:35:21.345Z,25.13
2018-07-07T08:36:21.327Z,26.82
2018-07-07T08:37:21.302Z,27.40
2018-07-07T08:38:21.290Z,27.30
2018-07-07T08:39:21.274Z,25.92
2018-07-07T08:40:21.272Z,26.40
2018-07-07T08:41:21.274Z,26.99
2018-07-07T08:42:21.252Z,26.30
2018-07-07T08:43:21.240Z,26.58
2018-07-07T08:44:21.221Z,26.48
2018-07-07T08:45:21.216Z,25.20
2018-07-07T08:46:21.227Z,24.59
2018-07-07T08:47:21.196Z,26.37
2018-07-07T08:48:21.183Z,27.16
2018-07-07T08:49:21.188Z,26.07
2018-07-07T08:50:21.244Z,26.46
2018-07-07T08:51:21.178Z,25.85
2018-07-07T08:52:21.149Z,25.95
2018-07-07T08:53:21.136Z,25.17
2018-07-07T08:54:21.125Z,25.17
2018-07-07T08:55:22.171Z,26.04
2018-07-07T08:56:21.107Z,25.74
2018-07-07T08:57:21.122Z,25.73
2018-07-07T08:58:21.082Z,25.92
2018-07-07T08:59:21.072Z,25.93
2018-07-07T09:00:21.065Z,25.62
2018-07-07T09:01:21.087Z,26.31
2018-07-07T09:02:21.114Z,25.24
2018-07-07T09:03:21.048Z,25.72
2018-07-07T09:04:21.022Z,24.84
2018-07-07T09:05:21.021Z,24.64
2018-07-07T09:06:21.002Z,24.74
2018-07-07T09:07:21.027Z,25.12
2018-07-07T09:08:20.987Z,24.92
2018-07-07T09:09:21.003Z,25.71
2018-07-07T09:10:20.973Z,25.12
2018-07-07T09:11:20.983Z,23.66
2018-07-07T09:12:20.950Z,23.35
2018-07-07T09:13:20.936Z,25.22
2018-07-07T09:14:20.988Z,24.63
2018-07-07T09:15:20.945Z,25.50
2018-07-07T09:16:20.937Z,24.80
2018-07-07T09:17:20.901Z,24.90
2018-07-07T09:18:20.889Z,24.98
2018-07-07T09:19:20.888Z,25.49
2018-07-07T09:20:20.874Z,25.20
2018-07-07T09:21:20.909Z,25.68
2018-07-07T09:22:20.880Z,24.79
2018-07-07T09:23:20.847Z,24.20
2018-07-07T09:24:20.834Z,25.96
2018-07-07T09:25:20.831Z,23.42
2018-07-07T09:26:20.818Z,25.76
2018-07-07T09:27:20.836Z,24.77
2018-07-07T09:28:20.795Z,24.97
2018-07-07T09:29:20.797Z,25.07
2018-07-07T09:30:20.777Z,25.65
2018-07-07T09:31:20.772Z,24.57
2018-07-07T09:32:20.785Z,23.77
2018-07-07T09:33:20.758Z,24.85
2018-07-07T09:34:20.745Z,24.07
2018-07-07T09:35:20.743Z,24.07
2018-07-07T09:36:20.723Z,22.78
2018-07-07T09:37:20.750Z,23.86
2018-07-07T09:38:20.705Z,22.67
2018-07-07T09:39:20.705Z,22.97
2018-07-07T09:40:20.687Z,23.76
2018-07-07T09:41:20.688Z,22.10
2018-07-07T09:42:20.671Z,22.88
2018-07-07T09:43:20.688Z,23.48
2018-07-07T09:44:20.654Z,24.36
2018-07-07T09:45:20.656Z,23.86
2018-07-07T09:46:20.637Z,23.57
2018-07-07T09:47:20.626Z,22.98
2018-07-07T09:48:20.646Z,25.02
2018-07-07T09:49:20.609Z,22.58
2018-07-07T09:50:20.602Z,24.63
2018-07-07T09:51:20.595Z,24.42
2018-07-07T09:52:20.582Z,22.07
2018-07-07T09:53:20.576Z,22.17
2018-07-07T09:54:20.601Z,22.56
2018-07-07T09:55:20.561Z,22.17
2018-07-07T09:56:20.575Z,22.17
2018-07-07T09:57:20.537Z,22.36
2018-07-07T09:58:20.540Z,22.08
2018-07-07T09:59:20.550Z,23.25
2018-07-07T10:00:20.510Z,22.08
2018-07-07T10:01:20.506Z,24.53
2018-07-07T10:02:20.499Z,23.35
2018-07-07T10:03:20.487Z,23.83
2018-07-07T10:04:20.510Z,23.54
2018-07-07T10:05:20.474Z,22.07
2018-07-07T10:06:20.471Z,24.32
2018-07-07T10:07:20.511Z,24.50
2018-07-07T10:08:20.443Z,23.72
2018-07-07T10:09:20.445Z,23.40
2018-07-07T10:10:20.453Z,23.40
2018-07-07T10:11:20.428Z,23.10
2018-07-07T10:12:20.418Z,21.33
2018-07-07T10:13:20.453Z,22.02
2018-07-07T10:14:20.436Z,23.00
2018-07-07T10:15:20.394Z,23.97
2018-07-07T10:16:20.383Z,23.49
2018-07-07T10:17:20.370Z,23.57
2018-07-07T10:18:20.372Z,21.72
2018-07-07T10:19:20.361Z,22.59
2018-07-07T10:20:20.372Z,22.69
2018-07-07T10:21:20.339Z,22.09
2018-07-07T10:22:20.338Z,22.67
2018-07-07T10:23:20.317Z,22.37
2018-07-07T10:24:20.319Z,21.88
2018-07-07T10:25:20.336Z,19.94
2018-07-07T10:26:20.412Z,22.37
2018-07-07T10:27:20.288Z,21.12
2018-07-07T10:28:20.276Z,22.28
2018-07-07T10:29:20.270Z,22.37
2018-07-07T10:30:20.256Z,22.87
2018-07-07T10:31:20.277Z,22.96
2018-07-07T10:32:20.238Z,22.26
2018-07-07T10:33:20.236Z,20.12
2018-07-07T10:34:20.218Z,21.19
2018-07-07T10:35:20.238Z,20.61
2018-07-07T10:36:20.203Z,19.35
2018-07-07T10:37:20.219Z,22.48
2018-07-07T10:38:20.264Z,20.06
2018-07-07T10:39:20.181Z,22.50
2018-07-07T10:40:20.163Z,22.11
2018-07-07T10:41:20.187Z,21.51
2018-07-07T10:42:20.151Z,22.88
2018-07-07T10:43:20.144Z,22.49
2018-07-07T10:44:20.128Z,22.49
2018-07-07T10:45:20.185Z,23.07
2018-07-07T10:46:20.130Z,23.15
2018-07-07T10:47:20.115Z,20.81
2018-07-07T10:48:20.093Z,22.25
2018-07-07T10:49:20.088Z,21.77
2018-07-07T10:50:20.076Z,20.79
2018-07-07T10:51:20.104Z,21.85
2018-07-07T10:52:20.062Z,20.30
2018-07-07T10:53:20.058Z,19.52
2018-07-07T10:54:20.042Z,20.30
2018-07-07T10:55:20.034Z,20.01
2018-07-07T10:56:20.035Z,23.43
2018-07-07T10:57:20.042Z,20.90
2018-07-07T10:58:20.009Z,21.29
2018-07-07T10:59:20.005Z,21.57
2018-07-07T11:00:19.992Z,22.25
2018-07-07T11:01:19.983Z,22.34
2018-07-07T11:02:20.012Z,21.09
2018-07-07T11:03:19.974Z,21.27
2018-07-07T11:04:19.963Z,22.14
2018-07-07T11:05:19.949Z,21.95
2018-07-07T11:06:19.943Z,19.23
2018-07-07T11:07:19.938Z,20.70
2018-07-07T11:08:19.951Z,20.71
2018-07-07T11:09:19.920Z,20.61
2018-07-07T11:10:19.902Z,20.80
2018-07-07T11:11:19.898Z,21.37
2018-07-07T11:12:20.210Z,21.96
2018-07-07T11:13:19.883Z,20.31
2018-07-07T11:14:19.892Z,22.93
2018-07-07T11:15:19.855Z,20.39
2018-07-07T11:16:19.859Z,20.68
2018-07-07T11:17:19.837Z,20.48
2018-07-07T11:18:19.839Z,22.23
2018-07-07T11:19:19.848Z,22.22
2018-07-07T11:20:19.820Z,21.24
2018-07-07T11:21:19.808Z,20.36
2018-07-07T11:22:19.803Z,20.84
2018-07-07T11:23:19.790Z,18.89
2018-07-07T11:24:19.811Z,20.44
2018-07-07T11:25:19.779Z,19.37
2018-07-07T11:26:19.768Z,19.96
2018-07-07T11:27:19.760Z,19.85
2018-07-07T11:28:19.754Z,18.99
2018-07-07T11:29:19.748Z,19.95
2018-07-07T11:30:19.756Z,20.24
2018-07-07T11:31:19.732Z,20.13
2018-07-07T11:32:19.715Z,19.54
2018-07-07T11:33:19.717Z,19.54
2018-07-07T11:34:19.702Z,17.51
2018-07-07T11:35:19.728Z,18.57
2018-07-07T11:36:19.745Z,20.13
2018-07-07T11:37:19.681Z,19.84
2018-07-07T11:38:19.668Z,20.42
2018-07-07T11:39:19.667Z,18.59
2018-07-07T11:40:19.688Z,19.15
2018-07-07T11:41:19.651Z,18.96
2018-07-07T11:42:19.691Z,18.96
2018-07-07T11:43:19.623Z,19.53
2018-07-07T11:44:19.626Z,17.89
2018-07-07T11:45:19.719Z,19.15
2018-07-07T11:46:19.624Z,18.85
2018-07-07T11:47:19.590Z,19.23
2018-07-07T11:48:19.590Z,18.55
2018-07-07T11:49:19.578Z,18.17
2018-07-07T11:50:19.652Z,17.02
2018-07-07T11:51:19.592Z,18.67
2018-07-07T11:52:19.547Z,18.38
2018-07-07T11:53:19.539Z,18.39
2018-07-07T11:54:19.532Z,18.68
2018-07-07T11:55:19.517Z,20.13
2018-07-07T11:56:19.511Z,18.49
2018-07-07T11:57:19.581Z,18.96
2018-07-07T11:58:19.493Z,19.06
2018-07-07T11:59:19.491Z,18.38
2018-07-07T12:00:19.473Z,19.94
2018-07-07T12:01:19.475Z,18.96
2018-07-07T12:02:19.454Z,18.67
2018-07-07T12:03:19.474Z,18.87
2018-07-07T12:04:19.452Z,20.03
2018-07-07T12:05:19.439Z,19.64
2018-07-07T12:06:19.422Z,19.15
2018-07-07T12:07:19.421Z,17.60
2018-07-07T12:08:19.469Z,19.05
2018-07-07T12:09:19.398Z,19.34
2018-07-07T12:10:19.398Z,18.17
2018-07-07T12:11:19.462Z,18.64
2018-07-07T12:12:19.369Z,17.19
2018-07-07T12:13:19.368Z,18.84
2018-07-07T12:14:19.382Z,19.03
2018-07-07T12:15:19.350Z,19.12
2018-07-07T12:16:19.334Z,18.06
2018-07-07T12:17:19.343Z,18.26
2018-07-07T12:18:19.319Z,18.34
2018-07-07T12:19:19.310Z,18.35
2018-07-07T12:20:19.319Z,18.06
2018-07-07T12:21:19.296Z,18.64
2018-07-07T12:22:19.280Z,20.48
2018-07-07T12:23:19.275Z,19.89
2018-07-07T12:24:19.258Z,18.25
2018-07-07T12:25:19.289Z,17.57
2018-07-07T12:26:19.241Z,19.31
2018-07-07T12:27:19.239Z,19.40
2018-07-07T12:28:19.236Z,18.33
2018-07-07T12:29:19.223Z,18.82
2018-07-07T12:30:19.214Z,17.27
2018-07-07T12:31:19.265Z,17.95
2018-07-07T12:32:19.200Z,18.15
2018-07-07T12:33:19.196Z,17.57
2018-07-07T12:34:19.179Z,17.76
2018-07-07T12:35:19.173Z,17.28
2018-07-07T12:36:19.190Z,19.02
2018-07-07T12:37:19.164Z,17.96
2018-07-07T12:38:19.147Z,18.05
2018-07-07T12:39:19.137Z,17.29
2018-07-07T12:40:19.138Z,18.16
2018-07-07T12:41:19.154Z,18.64
2018-07-07T12:42:19.121Z,18.26
2018-07-07T12:43:19.111Z,19.02
2018-07-07T12:44:19.100Z,18.25
2018-07-07T12:45:19.093Z,17.56
2018-07-07T12:46:19.075Z,18.44
2018-07-07T12:47:19.100Z,18.15
2018-07-07T12:48:19.070Z,17.96
2018-07-07T12:49:19.057Z,19.03
2018-07-07T12:50:19.042Z,17.58
2018-07-07T12:51:19.036Z,18.36
2018-07-07T12:52:19.024Z,18.07